Time;durP1;ratioP1;P1;durP2;ratioP2;P2;SDS_P1;SDS_P2;PMS_P1;PMS_P2;Temp;Humidity;BMP_temperature;BMP_pressure;BME280_temperature;BME280_humidity;BME280_pressure;Samples;Min_cycle;Max_cycle;Signal;HPM_P1;HPM_P2
2021/06/09 00:02:06;;;;;;;;;9.25;8.25;;;;;;;;5005938;28;46555;-79
2021/06/09 00:04:31;;;;;;;;;8.50;8.00;;;;;;;;5005780;28;46129;-79
2021/06/09 00:06:57;;;;;;;;;6.00;6.00;;;;;;;;4988433;28;45476;-78
2021/06/09 00:09:22;;;;;;;;;6.00;6.00;;;;;;;;4988210;28;47835;-79
2021/06/09 00:11:47;;;;;;;;;7.75;7.75;;;;;;;;5007822;28;49778;-79
2021/06/09 00:14:14;;;;;;;;;7.25;6.75;;;;;;;;5004072;28;45889;-78
2021/06/09 00:16:40;;;;;;;;;6.00;6.00;;;;;;;;4987342;28;45537;-79
2021/06/09 00:19:06;;;;;;;;;6.75;5.00;;;;;;;;5000640;28;46934;-79
2021/06/09 00:21:31;;;;;;;;;7.50;7.50;;;;;;;;4966819;28;45662;-78
2021/06/09 00:23:56;;;;;;;;;9.50;7.00;;;;;;;;4986886;28;45735;-80
2021/06/09 00:26:22;;;;;;;;;5.25;5.25;;;;;;;;4985035;28;45584;-78
2021/06/09 00:28:48;;;;;;;;;7.50;7.00;;;;;;;;4967047;28;48329;-78
2021/06/09 00:31:13;;;;;;;;;5.50;5.50;;;;;;;;4988074;28;45845;-78
2021/06/09 00:33:38;;;;;;;;;5.75;5.50;;;;;;;;4985951;28;45720;-79
2021/06/09 00:36:04;;;;;;;;;7.00;7.00;;;;;;;;4983578;28;45489;-78
2021/06/09 00:38:29;;;;;;;;;7.00;7.00;;;;;;;;4969904;28;47147;-79
2021/06/09 00:40:56;;;;;;;;;6.00;6.00;;;;;;;;4983807;28;45626;-77
2021/06/09 00:43:23;;;;;;;;;6.00;6.00;;;;;;;;4988036;28;45585;-78
2021/06/09 00:45:53;;;;;;;;;7.25;7.00;;;;;;;;4965912;28;45765;-78
2021/06/09 00:48:24;;;;;;;;;6.00;6.00;;;;;;;;4982674;28;45682;-78
2021/06/09 00:50:49;;;;;;;;;7.00;7.00;;;;;;;;4970744;28;45503;-78
2021/06/09 00:53:27;;;;;;;;;6.00;6.00;;;;;;;;4984220;28;45568;-79
2021/06/09 00:55:53;;;;;;;;;6.00;6.00;;;;;;;;4980961;28;45573;-78
2021/06/09 00:58:18;;;;;;;;;5.00;5.00;;;;;;;;4983478;28;45557;-78
2021/06/09 01:00:44;;;;;;;;;6.75;6.00;;;;;;;;4984868;28;45524;-78
2021/06/09 01:03:10;;;;;;;;;7.00;6.00;;;;;;;;4964994;28;45307;-78
2021/06/09 01:05:35;;;;;;;;;6.75;6.00;;;;;;;;4986779;28;45589;-79
2021/06/09 01:08:04;;;;;;;;;7.50;7.50;;;;;;;;4982110;28;47122;-78
2021/06/09 01:10:30;;;;;;;;;7.00;7.00;;;;;;;;4967592;28;46576;-79
2021/06/09 01:12:56;;;;;;;;;6.00;6.00;;;;;;;;4986671;28;45751;-79
2021/06/09 01:15:21;;;;;;;;;7.75;7.75;;;;;;;;4983136;28;53116;-78
2021/06/09 01:17:47;;;;;;;;;10.75;8.25;;;;;;;;4968670;28;47247;-79
2021/06/09 01:20:12;;;;;;;;;7.75;7.75;;;;;;;;4984631;28;45556;-78
2021/06/09 01:22:37;;;;;;;;;8.50;7.00;;;;;;;;4981005;28;45671;-78
2021/06/09 01:25:06;;;;;;;;;7.00;6.00;;;;;;;;4988145;28;51588;-79
2021/06/09 01:27:31;;;;;;;;;7.75;7.00;;;;;;;;4983888;28;46118;-78
2021/06/09 01:29:57;;;;;;;;;6.25;6.25;;;;;;;;4967657;28;45996;-78
2021/06/09 01:32:23;;;;;;;;;9.50;7.25;;;;;;;;4986475;28;48482;-79
2021/06/09 01:34:48;;;;;;;;;8.50;6.50;;;;;;;;4984066;28;45440;-79
2021/06/09 01:37:13;;;;;;;;;6.50;6.50;;;;;;;;4987296;28;45861;-79
2021/06/09 01:39:38;;;;;;;;;6.75;6.50;;;;;;;;4984143;28;45546;-78
2021/06/09 01:42:04;;;;;;;;;7.00;7.00;;;;;;;;4983616;28;45628;-78
2021/06/09 01:44:29;;;;;;;;;6.00;6.00;;;;;;;;4987137;28;45793;-78
2021/06/09 01:46:54;;;;;;;;;6.00;6.00;;;;;;;;4964648;28;48245;-78
2021/06/09 01:49:20;;;;;;;;;7.00;7.00;;;;;;;;4987199;28;45468;-78
2021/06/09 01:51:45;;;;;;;;;7.25;6.00;;;;;;;;4964887;28;46091;-78
2021/06/09 01:54:11;;;;;;;;;7.50;7.50;;;;;;;;4983098;28;46003;-79
2021/06/09 01:56:36;;;;;;;;;7.75;6.00;;;;;;;;4986745;28;46316;-77
2021/06/09 01:59:11;;;;;;;;;6.50;6.00;;;;;;;;4984399;28;45538;-78
2021/06/09 02:01:36;;;;;;;;;8.00;6.25;;;;;;;;4986956;28;45382;-78
2021/06/09 02:04:01;;;;;;;;;7.50;5.00;;;;;;;;4989787;28;45833;-78
2021/06/09 02:06:27;;;;;;;;;8.00;5.50;;;;;;;;4986465;28;46157;-78
2021/06/09 02:08:52;;;;;;;;;7.75;7.00;;;;;;;;4990716;28;45441;-78
2021/06/09 02:11:18;;;;;;;;;6.50;6.00;;;;;;;;4985923;28;45541;-78
2021/06/09 02:13:44;;;;;;;;;9.00;8.00;;;;;;;;4967271;28;45695;-78
2021/06/09 02:16:09;;;;;;;;;8.50;7.00;;;;;;;;4990710;28;46358;-79
2021/06/09 02:18:34;;;;;;;;;5.25;5.25;;;;;;;;4987426;28;45820;-78
2021/06/09 02:21:00;;;;;;;;;7.25;5.00;;;;;;;;4986826;28;46393;-80
2021/06/09 02:23:27;;;;;;;;;6.25;5.75;;;;;;;;4968342;28;45685;-78
2021/06/09 02:25:54;;;;;;;;;6.00;6.00;;;;;;;;4983847;28;46376;-78
2021/06/09 02:28:20;;;;;;;;;6.75;6.75;;;;;;;;4986999;28;45568;-79
2021/06/09 02:30:46;;;;;;;;;6.75;6.00;;;;;;;;4965487;28;45418;-78
2021/06/09 02:33:13;;;;;;;;;7.00;5.75;;;;;;;;4966577;28;45498;-79
2021/06/09 02:35:42;;;;;;;;;8.00;8.00;;;;;;;;4989206;28;46216;-78
2021/06/09 02:38:08;;;;;;;;;7.75;6.75;;;;;;;;4984797;28;45940;-78
2021/06/09 02:40:34;;;;;;;;;7.00;7.00;;;;;;;;4966638;28;45542;-79
2021/06/09 02:42:59;;;;;;;;;10.00;7.00;;;;;;;;4987349;28;46979;-78
2021/06/09 02:45:24;;;;;;;;;10.00;7.00;;;;;;;;4979953;28;45565;-78
2021/06/09 02:47:53;;;;;;;;;8.50;8.00;;;;;;;;4987817;28;45548;-79
2021/06/09 02:50:18;;;;;;;;;6.25;6.00;;;;;;;;4983880;28;46092;-78
2021/06/09 02:52:47;;;;;;;;;7.25;7.00;;;;;;;;4984098;28;45737;-77
2021/06/09 02:55:20;;;;;;;;;10.00;6.75;;;;;;;;4987529;28;45535;-78
2021/06/09 02:57:55;;;;;;;;;8.00;8.00;;;;;;;;4964036;28;46055;-79
2021/06/09 03:00:27;;;;;;;;;8.25;7.25;;;;;;;;4983757;28;45605;-78
2021/06/09 03:03:11;;;;;;;;;8.50;8.00;;;;;;;;4986865;28;45413;-78
2021/06/09 03:05:48;;;;;;;;;11.00;8.00;;;;;;;;4986849;28;46097;-79
2021/06/09 03:08:24;;;;;;;;;5.00;5.00;;;;;;;;4964953;28;45732;-78
2021/06/09 03:11:09;;;;;;;;;8.50;6.75;;;;;;;;4982834;28;45375;-78
2021/06/09 03:13:52;;;;;;;;;8.75;7.00;;;;;;;;4980350;28;45718;-79
2021/06/09 03:16:24;;;;;;;;;8.00;6.00;;;;;;;;4986389;28;46290;-79
2021/06/09 03:18:51;;;;;;;;;8.75;7.25;;;;;;;;4985897;28;45532;-78
2021/06/09 03:21:18;;;;;;;;;9.50;6.50;;;;;;;;4982151;28;45624;-79
2021/06/09 03:23:55;;;;;;;;;8.75;7.50;;;;;;;;4985147;28;45597;-79
2021/06/09 03:26:32;;;;;;;;;8.25;7.25;;;;;;;;5002395;23;47179;-89
2021/06/09 03:29:10;;;;;;;;;9.50;8.00;;;;;;;;5027530;28;45570;-88
2021/06/09 03:31:37;;;;;;;;;8.00;7.25;;;;;;;;5028773;28;46912;-89
2021/06/09 03:34:04;;;;;;;;;9.00;8.00;;;;;;;;5028955;28;45456;-89
2021/06/09 03:36:33;;;;;;;;;8.00;7.50;;;;;;;;5028297;28;45579;-89
2021/06/09 03:39:01;;;;;;;;;10.75;7.25;;;;;;;;5025451;28;45691;-88
2021/06/09 03:41:31;;;;;;;;;8.00;8.00;;;;;;;;5025643;28;45487;-88
2021/06/09 03:43:56;;;;;;;;;6.75;6.50;;;;;;;;5029472;28;45590;-88
2021/06/09 03:46:23;;;;;;;;;10.25;9.00;;;;;;;;5013402;28;48295;-88
2021/06/09 03:48:49;;;;;;;;;9.50;8.00;;;;;;;;5035423;28;45728;-89
2021/06/09 03:51:15;;;;;;;;;8.00;7.00;;;;;;;;5027188;28;45444;-89
2021/06/09 03:53:40;;;;;;;;;7.50;7.50;;;;;;;;5014290;28;45433;-89
2021/06/09 03:56:06;;;;;;;;;10.50;9.75;;;;;;;;5030164;28;46490;-88
2021/06/09 03:58:33;;;;;;;;;9.50;8.50;;;;;;;;5020386;28;45451;-89
2021/06/09 04:00:58;;;;;;;;;8.25;7.00;;;;;;;;5011518;28;45542;-88
2021/06/09 04:03:24;;;;;;;;;8.00;8.00;;;;;;;;5022443;28;45516;-89
2021/06/09 04:05:51;;;;;;;;;8.25;8.00;;;;;;;;5024279;28;45473;-89
2021/06/09 04:08:18;;;;;;;;;9.00;8.50;;;;;;;;5027334;28;45617;-88
2021/06/09 04:10:44;;;;;;;;;10.00;8.00;;;;;;;;5026623;28;45456;-89
2021/06/09 04:13:10;;;;;;;;;12.50;10.00;;;;;;;;5025008;28;45553;-91
2021/06/09 04:15:35;;;;;;;;;7.25;7.00;;;;;;;;5026446;28;46178;-88
2021/06/09 04:18:01;;;;;;;;;12.00;11.00;;;;;;;;5018593;28;45636;-88
2021/06/09 04:20:27;;;;;;;;;9.00;9.00;;;;;;;;5008476;28;45477;-88
2021/06/09 04:22:53;;;;;;;;;11.25;9.75;;;;;;;;5022101;28;45834;-88
2021/06/09 04:25:18;;;;;;;;;16.25;14.50;;;;;;;;5020262;28;45593;-88
2021/06/09 04:27:44;;;;;;;;;20.00;16.00;;;;;;;;5028842;28;45330;-88
2021/06/09 04:30:10;;;;;;;;;14.25;14.00;;;;;;;;5022979;28;45480;-88
2021/06/09 04:32:58;;;;;;;;;16.00;13.75;;;;;;;;5023483;28;45510;-87
2021/06/09 04:35:24;;;;;;;;;18.75;14.00;;;;;;;;5000918;28;48575;-88
2021/06/09 04:37:50;;;;;;;;;20.00;16.75;;;;;;;;5020545;28;45831;-87
2021/06/09 04:40:17;;;;;;;;;21.75;18.00;;;;;;;;5023222;28;45396;-88
2021/06/09 04:42:43;;;;;;;;;19.25;19.00;;;;;;;;5028340;28;45628;-88
2021/06/09 04:45:09;;;;;;;;;21.25;19.25;;;;;;;;5011071;28;47975;-88
2021/06/09 04:47:35;;;;;;;;;23.25;18.75;;;;;;;;5030842;28;45610;-89
2021/06/09 04:50:00;;;;;;;;;26.25;21.75;;;;;;;;5031385;28;45551;-88
2021/06/09 04:52:25;;;;;;;;;24.33;20.33;;;;;;;;5050594;28;45510;-87
2021/06/09 04:54:50;;;;;;;;;26.33;22.00;;;;;;;;5041522;28;46472;-87
2021/06/09 04:57:15;;;;;;;;;22.00;21.33;;;;;;;;5045206;28;46160;-88
2021/06/09 04:59:41;;;;;;;;;25.33;23.33;;;;;;;;5027085;28;45296;-88
2021/06/09 05:02:06;;;;;;;;;26.67;21.33;;;;;;;;5018767;28;45425;-88
2021/06/09 05:04:31;;;;;;;;;23.00;20.50;;;;;;;;5016412;28;47691;-88
2021/06/09 05:06:56;;;;;;;;;22.50;21.25;;;;;;;;5050773;28;45639;-87
2021/06/09 05:09:22;;;;;;;;;21.00;17.75;;;;;;;;5045820;28;45853;-88
2021/06/09 05:12:02;;;;;;;;;22.75;18.25;;;;;;;;5028938;28;45504;-87
2021/06/09 05:14:32;;;;;;;;;19.00;17.00;;;;;;;;5049538;28;46221;-88
2021/06/09 05:16:58;;;;;;;;;15.75;15.00;;;;;;;;5049774;28;45580;-88
2021/06/09 05:19:27;;;;;;;;;15.50;14.50;;;;;;;;5043938;28;45384;-88
2021/06/09 05:21:57;;;;;;;;;20.00;13.00;;;;;;;;5047910;28;45571;-88
2021/06/09 05:24:27;;;;;;;;;17.75;14.00;;;;;;;;5030453;28;48475;-88
2021/06/09 05:26:53;;;;;;;;;13.75;12.75;;;;;;;;5029842;28;45503;-87
2021/06/09 05:29:18;;;;;;;;;23.00;16.00;;;;;;;;5048210;28;45631;-88
2021/06/09 05:31:48;;;;;;;;;15.00;12.75;;;;;;;;5048839;28;45778;-87
2021/06/09 05:34:14;;;;;;;;;18.75;17.25;;;;;;;;5049001;28;46663;-88
2021/06/09 05:36:39;;;;;;;;;12.50;12.50;;;;;;;;5046065;28;45564;-87
2021/06/09 05:39:05;;;;;;;;;15.00;13.33;;;;;;;;5049712;28;45551;-88
2021/06/09 05:41:30;;;;;;;;;16.50;12.00;;;;;;;;5049053;28;45508;-87
2021/06/09 05:43:55;;;;;;;;;15.75;14.25;;;;;;;;5046422;28;46428;-87
2021/06/09 05:46:21;;;;;;;;;15.50;13.00;;;;;;;;5049928;28;46918;-87
2021/06/09 05:48:47;;;;;;;;;15.75;14.50;;;;;;;;5040137;28;45373;-87
2021/06/09 05:51:13;;;;;;;;;14.25;12.75;;;;;;;;5046722;28;45589;-88
2021/06/09 05:53:39;;;;;;;;;14.25;14.00;;;;;;;;5041399;28;45623;-88
2021/06/09 05:56:05;;;;;;;;;14.00;12.75;;;;;;;;5029649;28;45781;-87
2021/06/09 05:58:30;;;;;;;;;13.25;12.75;;;;;;;;5048594;28;45490;-89
2021/06/09 06:00:57;;;;;;;;;14.00;14.00;;;;;;;;5046851;28;45425;-90
2021/06/09 06:03:24;;;;;;;;;14.00;12.75;;;;;;;;5024941;28;47422;-88
2021/06/09 06:05:56;;;;;;;;;17.00;13.00;;;;;;;;5047470;28;45624;-89
2021/06/09 06:08:22;;;;;;;;;16.25;14.25;;;;;;;;5047445;28;45742;-87
2021/06/09 06:10:47;;;;;;;;;17.50;15.00;;;;;;;;5047665;28;45417;-88
2021/06/09 06:13:12;;;;;;;;;26.25;20.25;;;;;;;;5048184;28;46815;-87
2021/06/09 06:15:38;;;;;;;;;17.75;16.25;;;;;;;;5042956;28;45504;-88
2021/06/09 06:18:03;;;;;;;;;21.25;17.75;;;;;;;;5045917;28;45331;-88
2021/06/09 06:20:28;;;;;;;;;19.25;16.50;;;;;;;;5044789;28;45496;-87
2021/06/09 06:22:54;;;;;;;;;17.50;15.75;;;;;;;;5029833;28;49287;-88
2021/06/09 06:25:23;;;;;;;;;24.50;19.00;;;;;;;;5039714;28;45449;-87
2021/06/09 06:27:49;;;;;;;;;20.50;18.00;;;;;;;;5027715;28;45514;-87
2021/06/09 06:30:18;;;;;;;;;17.50;16.50;;;;;;;;5046984;28;45693;-88
2021/06/09 06:32:45;;;;;;;;;20.50;19.00;;;;;;;;5048118;28;45499;-88
2021/06/09 06:35:14;;;;;;;;;23.00;20.50;;;;;;;;5043243;28;45650;-87
2021/06/09 06:37:42;;;;;;;;;23.25;19.00;;;;;;;;5043728;28;45576;-89
2021/06/09 06:40:07;;;;;;;;;24.25;22.25;;;;;;;;5042948;28;45457;-88
2021/06/09 06:42:33;;;;;;;;;18.50;18.50;;;;;;;;5040884;28;47083;-88
2021/06/09 06:45:00;;;;;;;;;23.25;22.00;;;;;;;;5027593;28;46244;-88
2021/06/09 06:47:26;;;;;;;;;25.00;23.50;;;;;;;;5050359;28;46188;-88
2021/06/09 06:49:52;;;;;;;;;28.50;25.50;;;;;;;;5044954;28;45821;-89
2021/06/09 06:52:17;;;;;;;;;27.75;24.50;;;;;;;;5030887;28;46877;-89
2021/06/09 06:54:42;;;;;;;;;23.00;21.75;;;;;;;;5045260;28;45459;-88
2021/06/09 06:57:07;;;;;;;;;26.00;23.00;;;;;;;;5042719;28;45821;-88
2021/06/09 06:59:33;;;;;;;;;29.50;24.00;;;;;;;;5045785;28;45668;-88
2021/06/09 07:01:59;;;;;;;;;24.50;23.00;;;;;;;;5029088;28;47408;-88
2021/06/09 07:04:24;;;;;;;;;26.75;24.75;;;;;;;;5049982;28;54619;-87
2021/06/09 07:06:50;;;;;;;;;24.75;22.50;;;;;;;;5030579;28;45789;-88
2021/06/09 07:09:16;;;;;;;;;22.25;18.50;;;;;;;;5029060;28;45569;-87
2021/06/09 07:11:42;;;;;;;;;22.75;21.50;;;;;;;;5026660;28;47330;-87
2021/06/09 07:14:07;;;;;;;;;21.50;20.00;;;;;;;;5045883;28;45656;-87
2021/06/09 07:16:33;;;;;;;;;23.50;21.00;;;;;;;;5045298;28;45842;-87
2021/06/09 07:19:02;;;;;;;;;25.00;22.75;;;;;;;;5048215;28;45545;-87
2021/06/09 07:21:27;;;;;;;;;29.25;25.50;;;;;;;;5044313;28;46617;-87
2021/06/09 07:23:53;;;;;;;;;27.25;24.50;;;;;;;;5050059;28;45754;-86
2021/06/09 07:26:19;;;;;;;;;24.75;23.25;;;;;;;;5043062;28;45511;-88
2021/06/09 07:28:45;;;;;;;;;27.50;24.00;;;;;;;;5047353;28;45577;-88
2021/06/09 07:31:12;;;;;;;;;28.75;24.00;;;;;;;;5050138;28;46280;-88
2021/06/09 07:33:38;;;;;;;;;28.00;25.50;;;;;;;;5042599;28;47436;-89
2021/06/09 07:36:06;;;;;;;;;23.00;23.00;;;;;;;;5050901;28;45406;-89
2021/06/09 07:38:35;;;;;;;;;34.75;30.00;;;;;;;;5043387;28;45571;-88
2021/06/09 07:41:01;;;;;;;;;25.75;24.25;;;;;;;;5041788;28;46523;-89
2021/06/09 07:43:33;;;;;;;;;26.00;22.75;;;;;;;;5047107;22;45235;-81
2021/06/09 07:45:58;;;;;;;;;23.50;20.50;;;;;;;;5003241;28;45576;-79
2021/06/09 07:48:26;;;;;;;;;29.00;27.25;;;;;;;;4987258;28;45456;-80
2021/06/09 07:51:11;;;;;;;;;35.00;28.00;;;;;;;;4994037;28;47307;-80
2021/06/09 07:53:38;;;;;;;;;29.50;28.50;;;;;;;;4976025;28;49238;-80
2021/06/09 07:56:04;;;;;;;;;28.75;24.50;;;;;;;;4999943;28;45386;-81
2021/06/09 07:58:31;;;;;;;;;29.50;27.50;;;;;;;;4984542;28;45546;-82
2021/06/09 08:00:57;;;;;;;;;30.75;27.50;;;;;;;;4986394;28;47383;-80
2021/06/09 08:03:24;;;;;;;;;28.25;23.75;;;;;;;;5001354;28;45706;-81
2021/06/09 08:05:50;;;;;;;;;27.00;24.50;;;;;;;;5008202;28;45770;-81
2021/06/09 08:08:16;;;;;;;;;28.00;25.50;;;;;;;;4983520;28;45811;-81
2021/06/09 08:10:42;;;;;;;;;26.75;23.50;;;;;;;;4985058;28;47158;-81
2021/06/09 08:13:09;;;;;;;;;23.50;23.25;;;;;;;;5006645;28;45532;-81
2021/06/09 08:15:35;;;;;;;;;23.00;19.00;;;;;;;;5002059;28;45579;-80
2021/06/09 08:18:01;;;;;;;;;21.75;17.25;;;;;;;;5005870;28;45645;-81
2021/06/09 08:20:28;;;;;;;;;16.75;14.50;;;;;;;;5001732;28;45829;-82
2021/06/09 08:22:56;;;;;;;;;21.00;18.75;;;;;;;;4985061;28;45980;-82
2021/06/09 08:25:25;;;;;;;;;15.75;15.00;;;;;;;;4988523;28;45568;-82
2021/06/09 08:27:52;;;;;;;;;18.25;16.25;;;;;;;;4984693;28;45530;-82
2021/06/09 08:30:17;;;;;;;;;19.75;18.00;;;;;;;;4985116;28;48535;-82
2021/06/09 08:32:43;;;;;;;;;14.00;14.00;;;;;;;;4988092;28;45807;-82
2021/06/09 08:35:08;;;;;;;;;16.75;15.00;;;;;;;;5001600;28;45706;-83
2021/06/09 08:37:34;;;;;;;;;18.25;16.50;;;;;;;;4987878;28;45339;-81
2021/06/09 08:39:59;;;;;;;;;16.75;14.75;;;;;;;;5005211;28;46102;-83
2021/06/09 08:42:25;;;;;;;;;15.25;12.75;;;;;;;;5000378;28;45504;-81
2021/06/09 08:44:50;;;;;;;;;10.75;10.00;;;;;;;;5006275;28;45667;-81
2021/06/09 08:47:16;;;;;;;;;10.50;10.50;;;;;;;;5001671;28;45536;-80
2021/06/09 08:49:42;;;;;;;;;16.75;14.00;;;;;;;;5002671;28;46732;-80
2021/06/09 08:52:10;;;;;;;;;12.75;12.25;;;;;;;;5003336;28;45514;-80
2021/06/09 08:54:36;;;;;;;;;12.00;11.00;;;;;;;;4994650;28;45587;-83
2021/06/09 08:57:01;;;;;;;;;14.25;12.00;;;;;;;;4987577;28;45588;-84
2021/06/09 08:59:29;;;;;;;;;9.25;9.00;;;;;;;;4986814;28;47174;-81
2021/06/09 09:01:54;;;;;;;;;9.00;9.00;;;;;;;;4979740;28;46230;-83
2021/06/09 09:04:20;;;;;;;;;12.00;11.33;;;;;;;;5006556;28;45604;-82
2021/06/09 09:06:46;;;;;;;;;9.75;8.75;;;;;;;;5001151;28;58114;-80
2021/06/09 09:09:11;;;;;;;;;8.00;7.25;;;;;;;;4997110;28;46121;-80
2021/06/09 09:11:37;;;;;;;;;8.25;6.25;;;;;;;;5006650;28;45405;-81
2021/06/09 09:14:02;;;;;;;;;15.00;10.25;;;;;;;;4984835;28;46942;-80
2021/06/09 09:16:27;;;;;;;;;10.00;10.00;;;;;;;;5006469;28;46778;-80
2021/06/09 09:19:00;;;;;;;;;9.00;8.75;;;;;;;;5001255;28;46504;-80
2021/06/09 09:21:36;;;;;;;;;7.00;7.00;;;;;;;;5000320;28;45512;-81
2021/06/09 09:24:05;;;;;;;;;10.25;8.75;;;;;;;;5005904;28;45559;-80
2021/06/09 09:26:33;;;;;;;;;8.00;8.00;;;;;;;;4987211;28;45758;-81
2021/06/09 09:29:30;;;;;;;;;11.50;11.00;;;;;;;;4997979;28;48220;-81
2021/06/09 09:31:57;;;;;;;;;8.00;8.00;;;;;;;;4936828;28;45714;-81
2021/06/09 09:34:29;;;;;;;;;10.75;9.25;;;;;;;;4945938;28;45609;-82
2021/06/09 09:37:05;;;;;;;;;9.25;8.75;;;;;;;;4941910;28;45600;-80
2021/06/09 09:39:30;;;;;;;;;9.00;7.00;;;;;;;;4923080;28;46891;-81
2021/06/09 09:41:56;;;;;;;;;8.00;7.00;;;;;;;;4943947;28;45528;-78
2021/06/09 09:44:21;;;;;;;;;7.00;7.00;;;;;;;;4942293;28;45521;-79
2021/06/09 09:46:54;;;;;;;;;6.00;6.00;;;;;;;;4941601;28;45664;-81
2021/06/09 09:49:20;;;;;;;;;9.00;6.00;;;;;;;;4943561;28;45914;-80
2021/06/09 09:51:50;;;;;;;;;4.00;4.00;;;;;;;;4926775;28;45730;-80
2021/06/09 09:54:21;;;;;;;;;5.00;5.00;;;;;;;;4942811;28;45596;-80
2021/06/09 09:56:47;;;;;;;;;7.75;5.25;;;;;;;;4946136;28;45570;-79
2021/06/09 09:59:12;;;;;;;;;5.00;5.00;;;;;;;;4943591;28;45720;-80
2021/06/09 10:01:38;;;;;;;;;3.25;3.25;;;;;;;;4946908;28;46533;-80
2021/06/09 10:04:05;;;;;;;;;4.25;4.25;;;;;;;;4947389;28;45970;-80
2021/06/09 10:06:35;;;;;;;;;4.50;3.00;;;;;;;;4950147;28;45642;-81
2021/06/09 10:09:06;;;;;;;;;5.25;3.50;;;;;;;;5008279;28;46141;-82
2021/06/09 10:11:32;;;;;;;;;4.25;3.75;;;;;;;;5002101;28;45560;-80
2021/06/09 10:13:57;;;;;;;;;7.00;5.00;;;;;;;;4994486;28;45701;-80
2021/06/09 10:16:22;;;;;;;;;4.67;4.67;;;;;;;;5008294;28;45532;-82
2021/06/09 10:19:13;;;;;;;;;7.33;5.67;;;;;;;;4988812;28;47273;-82
2021/06/09 10:21:43;;;;;;;;;6.75;6.00;;;;;;;;4988456;28;45573;-81
2021/06/09 10:24:09;;;;;;;;;6.50;6.50;;;;;;;;4988632;28;45546;-80
2021/06/09 10:26:35;;;;;;;;;5.75;4.50;;;;;;;;5008755;28;45603;-80
2021/06/09 10:29:03;;;;;;;;;6.00;4.75;;;;;;;;5001513;28;45780;-79
2021/06/09 10:31:39;;;;;;;;;4.50;3.75;;;;;;;;5009327;28;45618;-79
2021/06/09 10:34:05;;;;;;;;;6.00;6.00;;;;;;;;5006166;28;45642;-78
2021/06/09 10:36:32;;;;;;;;;5.75;5.75;;;;;;;;5004860;28;45471;-82
2021/06/09 10:38:58;;;;;;;;;5.50;5.50;;;;;;;;4992201;28;48010;-80
2021/06/09 10:41:24;;;;;;;;;8.00;6.33;;;;;;;;5003597;28;45558;-80
2021/06/09 10:43:51;;;;;;;;;5.75;4.75;;;;;;;;5000788;28;55436;-80
2021/06/09 10:46:25;;;;;;;;;4.00;4.00;;;;;;;;5008424;28;45328;-79
2021/06/09 10:48:53;;;;;;;;;5.25;5.25;;;;;;;;5001732;28;48173;-80
2021/06/09 10:51:19;;;;;;;;;5.00;5.00;;;;;;;;5001309;28;45905;-80
2021/06/09 10:53:44;;;;;;;;;7.25;6.00;;;;;;;;4989147;28;45621;-80
2021/06/09 10:56:12;;;;;;;;;5.50;4.25;;;;;;;;5003599;28;45476;-80
2021/06/09 10:58:37;;;;;;;;;6.00;6.00;;;;;;;;4999745;28;46299;-80
2021/06/09 11:01:04;;;;;;;;;4.25;4.25;;;;;;;;5007650;28;45470;-80
2021/06/09 11:03:33;;;;;;;;;5.50;5.50;;;;;;;;5002337;28;46566;-80
2021/06/09 11:06:02;;;;;;;;;5.00;4.00;;;;;;;;4998914;28;45463;-80
2021/06/09 11:08:29;;;;;;;;;4.75;4.00;;;;;;;;4986350;28;47515;-79
2021/06/09 11:10:54;;;;;;;;;4.75;4.00;;;;;;;;5003650;28;45832;-78
2021/06/09 11:13:27;;;;;;;;;5.00;5.00;;;;;;;;5007746;28;45404;-78
2021/06/09 11:16:12;;;;;;;;;5.00;5.00;;;;;;;;5002010;28;45459;-78
2021/06/09 11:18:41;;;;;;;;;5.50;5.50;;;;;;;;4998446;28;45831;-80
2021/06/09 11:21:07;;;;;;;;;5.00;5.00;;;;;;;;4999717;28;45694;-80
2021/06/09 11:23:34;;;;;;;;;6.50;5.50;;;;;;;;5004058;28;48514;-79
2021/06/09 11:26:01;;;;;;;;;5.00;5.00;;;;;;;;4999952;28;51750;-80
2021/06/09 11:28:33;;;;;;;;;6.25;5.00;;;;;;;;4978495;28;48149;-80
2021/06/09 11:31:00;;;;;;;;;6.25;5.25;;;;;;;;5005607;28;45546;-79
2021/06/09 11:33:32;;;;;;;;;6.75;6.00;;;;;;;;4982111;28;45611;-78
2021/06/09 11:35:58;;;;;;;;;5.50;5.00;;;;;;;;4989041;28;47787;-79
2021/06/09 11:38:37;;;;;;;;;5.25;5.00;;;;;;;;4999248;28;45725;-79
2021/06/09 11:41:03;;;;;;;;;6.00;6.00;;;;;;;;4996288;28;45839;-80
2021/06/09 11:43:42;;;;;;;;;4.00;2.25;;;;;;;;5008773;28;45465;-81
2021/06/09 11:46:09;;;;;;;;;4.75;4.75;;;;;;;;4995636;28;45660;-80
2021/06/09 11:48:36;;;;;;;;;5.50;5.00;;;;;;;;4986748;28;47287;-79
2021/06/09 11:51:21;;;;;;;;;7.50;7.00;;;;;;;;5006628;28;45605;-78
2021/06/09 11:53:48;;;;;;;;;6.00;6.00;;;;;;;;4992776;28;45418;-79
2021/06/09 11:56:19;;;;;;;;;7.00;7.00;;;;;;;;4991660;28;45902;-80
2021/06/09 11:58:45;;;;;;;;;4.50;3.25;;;;;;;;4995114;28;45854;-79
2021/06/09 12:01:11;;;;;;;;;4.00;4.00;;;;;;;;5012420;28;45456;-80
2021/06/09 12:03:37;;;;;;;;;4.50;4.50;;;;;;;;5001459;28;46537;-80
2021/06/09 12:06:21;;;;;;;;;4.00;4.00;;;;;;;;5008610;28;46215;-81
2021/06/09 12:08:47;;;;;;;;;6.00;5.50;;;;;;;;4992184;28;46046;-81
2021/06/09 12:11:13;;;;;;;;;6.00;6.00;;;;;;;;5010846;28;45575;-81
2021/06/09 12:13:38;;;;;;;;;6.00;5.50;;;;;;;;4994085;28;46047;-82
2021/06/09 12:16:09;;;;;;;;;6.00;6.00;;;;;;;;4991109;28;45802;-81
2021/06/09 12:18:35;;;;;;;;;7.25;6.00;;;;;;;;5003299;28;47247;-77
2021/06/09 12:21:04;;;;;;;;;7.25;7.00;;;;;;;;5006236;28;45693;-79
2021/06/09 12:23:30;;;;;;;;;5.50;4.50;;;;;;;;4991410;28;45714;-79
2021/06/09 12:25:55;;;;;;;;;6.25;6.25;;;;;;;;4998807;28;45596;-78
2021/06/09 12:28:20;;;;;;;;;6.67;5.33;;;;;;;;4987035;28;48447;-80
2021/06/09 12:30:52;;;;;;;;;4.00;4.00;;;;;;;;4995912;28;45434;-80
2021/06/09 12:33:17;;;;;;;;;7.75;6.00;;;;;;;;4998853;28;45640;-81
2021/06/09 12:35:42;;;;;;;;;5.33;5.00;;;;;;;;4987351;28;45407;-81
2021/06/09 12:38:08;;;;;;;;;6.00;6.00;;;;;;;;4990596;28;47158;-81
2021/06/09 12:40:35;;;;;;;;;5.50;4.25;;;;;;;;5004149;28;45676;-81
2021/06/09 12:43:01;;;;;;;;;7.25;5.00;;;;;;;;4973000;28;45606;-80
2021/06/09 12:45:27;;;;;;;;;5.75;5.75;;;;;;;;5017870;28;45670;-79
2021/06/09 12:47:53;;;;;;;;;8.00;5.75;;;;;;;;5026197;28;45508;-80
2021/06/09 12:50:23;;;;;;;;;6.00;5.25;;;;;;;;5018509;28;45556;-80
2021/06/09 12:52:51;;;;;;;;;6.00;4.50;;;;;;;;5004610;28;45551;-80
2021/06/09 12:55:24;;;;;;;;;7.50;5.75;;;;;;;;5004703;28;46019;-79
2021/06/09 12:57:50;;;;;;;;;8.00;6.00;;;;;;;;5017447;28;45790;-80
2021/06/09 13:00:21;;;;;;;;;6.25;6.25;;;;;;;;5003377;28;49074;-80
2021/06/09 13:02:47;;;;;;;;;6.50;6.50;;;;;;;;5024447;28;45499;-82
2021/06/09 13:05:13;;;;;;;;;5.00;5.00;;;;;;;;5005639;28;45629;-81
2021/06/09 13:07:38;;;;;;;;;4.50;4.25;;;;;;;;5019634;28;45532;-80
2021/06/09 13:10:03;;;;;;;;;6.25;5.25;;;;;;;;5025141;28;45582;-80
2021/06/09 13:12:29;;;;;;;;;7.00;5.00;;;;;;;;5016330;28;46652;-80
2021/06/09 13:14:56;;;;;;;;;5.25;5.25;;;;;;;;5026289;28;45647;-81
2021/06/09 13:17:21;;;;;;;;;4.00;4.00;;;;;;;;5021401;28;45988;-80
2021/06/09 13:19:46;;;;;;;;;8.00;5.00;;;;;;;;5020130;28;45983;-80
2021/06/09 13:22:14;;;;;;;;;5.33;5.33;;;;;;;;5009165;28;45500;-79
2021/06/09 13:24:39;;;;;;;;;7.25;6.00;;;;;;;;5017505;28;45686;-81
2021/06/09 13:27:12;;;;;;;;;5.75;5.75;;;;;;;;5005907;28;47478;-79
2021/06/09 13:29:45;;;;;;;;;5.00;5.00;;;;;;;;5020738;28;45721;-78
2021/06/09 13:32:20;;;;;;;;;6.00;6.00;;;;;;;;5016738;28;48519;-78
2021/06/09 13:34:47;;;;;;;;;7.75;6.75;;;;;;;;5002479;28;45713;-78
2021/06/09 13:37:15;;;;;;;;;8.50;5.75;;;;;;;;5002842;28;48567;-78
2021/06/09 13:39:42;;;;;;;;;6.25;6.25;;;;;;;;5012332;28;45773;-80
2021/06/09 13:42:08;;;;;;;;;5.50;5.50;;;;;;;;5014543;28;45777;-81
2021/06/09 13:44:38;;;;;;;;;7.50;6.00;;;;;;;;5020839;28;45633;-79
2021/06/09 13:47:04;;;;;;;;;7.50;6.00;;;;;;;;5020083;28;46063;-80
2021/06/09 13:49:31;;;;;;;;;5.75;5.75;;;;;;;;5025841;28;46226;-80
2021/06/09 13:51:57;;;;;;;;;5.50;5.50;;;;;;;;5016523;28;45753;-81
2021/06/09 13:54:26;;;;;;;;;8.00;6.00;;;;;;;;5015460;28;45503;-80
2021/06/09 13:56:51;;;;;;;;;9.00;7.00;;;;;;;;5020997;28;47002;-80
2021/06/09 13:59:18;;;;;;;;;7.75;6.75;;;;;;;;5019950;28;45491;-80
2021/06/09 14:01:45;;;;;;;;;6.25;4.50;;;;;;;;5010665;28;45838;-81
2021/06/09 14:04:11;;;;;;;;;3.25;3.25;;;;;;;;5005657;28;45644;-79
2021/06/09 14:06:36;;;;;;;;;5.00;5.00;;;;;;;;5015023;28;46123;-79
2021/06/09 14:09:06;;;;;;;;;9.00;6.00;;;;;;;;5023794;28;45412;-81
2021/06/09 14:11:32;;;;;;;;;5.25;5.00;;;;;;;;5020081;28;45911;-80
2021/06/09 14:13:57;;;;;;;;;8.00;6.25;;;;;;;;4997504;28;46542;-82
2021/06/09 14:16:22;;;;;;;;;7.67;6.00;;;;;;;;5231665;23;47654;-80
2021/06/09 14:18:48;;;;;;;;;5.75;5.00;;;;;;;;5000725;28;45508;-81
2021/06/09 14:21:13;;;;;;;;;7.00;6.00;;;;;;;;4998323;28;45496;-81
2021/06/09 14:23:40;;;;;;;;;8.00;6.00;;;;;;;;5000733;28;45790;-80
2021/06/09 14:26:13;;;;;;;;;7.00;6.25;;;;;;;;4985840;28;48199;-81
2021/06/09 14:28:42;;;;;;;;;34.25;30.25;;;;;;;;4983801;28;46286;-81
2021/06/09 14:31:21;;;;;;;;;6.25;6.25;;;;;;;;5004914;28;45549;-80
2021/06/09 14:36:17;;;;;;;;;8.00;6.75;;;;;;;;5008981;28;46099;-79
2021/06/09 14:38:44;;;;;;;;;10.00;9.25;;;;;;;;5006520;28;45492;-80